createdAt,value
2018-07-12T00:00:32.749Z,17.97
2018-07-12T00:03:00.315Z,16.50
2018-07-12T00:05:27.989Z,16.80
2018-07-12T00:07:55.512Z,15.40
2018-07-12T00:10:23.057Z,16.60
2018-07-12T00:12:52.930Z,14.90
2018-07-12T00:15:20.517Z,14.20
2018-07-12T00:17:50.073Z,15.10
2018-07-12T00:20:17.696Z,17.57
2018-07-12T00:22:45.166Z,18.50
2018-07-12T00:25:12.934Z,16.37
2018-07-12T00:27:40.406Z,17.67
2018-07-12T00:30:07.906Z,15.90
2018-07-12T00:32:35.406Z,17.70
2018-07-12T00:35:02.931Z,16.00
2018-07-12T00:37:30.375Z,18.53
2018-07-12T00:39:59.343Z,18.27
2018-07-12T00:42:28.394Z,16.17
2018-07-12T00:44:56.960Z,16.07
2018-07-12T00:47:29.259Z,19.50
2018-07-12T00:49:56.830Z,19.57
2018-07-12T00:52:24.388Z,22.40
2018-07-12T00:54:51.857Z,23.10
2018-07-12T00:57:19.327Z,24.27
2018-07-12T00:59:46.789Z,23.90
2018-07-12T01:02:14.090Z,27.13
2018-07-12T01:04:41.638Z,30.23
2018-07-12T01:07:09.007Z,30.40
2018-07-12T01:09:36.333Z,28.90
2018-07-12T01:12:03.637Z,32.07
2018-07-12T01:14:31.792Z,33.70
2018-07-12T01:16:59.193Z,29.83
2018-07-12T01:19:26.515Z,30.10
2018-07-12T01:21:53.861Z,31.27
2018-07-12T01:24:21.213Z,29.70
2018-07-12T01:26:48.525Z,30.37
2018-07-12T01:29:15.879Z,32.00
2018-07-12T01:31:43.227Z,30.40
2018-07-12T01:34:10.523Z,28.20
2018-07-12T01:36:37.842Z,28.57
2018-07-12T01:39:06.072Z,28.13
2018-07-12T01:41:33.446Z,30.00
2018-07-12T01:44:00.779Z,31.03
2018-07-12T01:46:28.084Z,29.50
2018-07-12T01:48:55.388Z,29.10
2018-07-12T01:51:22.724Z,28.33
2018-07-12T01:53:50.012Z,32.30
2018-07-12T01:56:17.341Z,27.00
2018-07-12T01:58:44.714Z,30.03
2018-07-12T02:01:12.093Z,29.53
2018-07-12T02:03:39.442Z,27.90
2018-07-12T02:06:06.866Z,32.37
2018-07-12T02:08:34.186Z,29.97
2018-07-12T02:11:01.545Z,30.20
2018-07-12T02:13:28.854Z,31.57
2018-07-12T02:15:56.223Z,33.43
2018-07-12T02:18:23.547Z,29.87
2018-07-12T02:20:50.894Z,28.47
2018-07-12T02:23:18.215Z,30.83
2018-07-12T02:25:45.566Z,30.27
2018-07-12T02:28:12.904Z,31.03
2018-07-12T02:30:40.212Z,28.47
2018-07-12T02:33:07.703Z,30.40
2018-07-12T02:35:35.028Z,29.80
2018-07-12T02:38:02.362Z,31.17
2018-07-12T02:40:29.691Z,29.83
2018-07-12T02:42:56.972Z,31.77
2018-07-12T02:45:24.328Z,29.77
2018-07-12T02:47:51.634Z,29.47
2018-07-12T02:50:18.942Z,30.50
2018-07-12T02:52:47.347Z,33.33
2018-07-12T02:55:14.645Z,31.10
2018-07-12T02:57:42.006Z,29.00
2018-07-12T03:00:09.341Z,32.30
2018-07-12T03:02:36.791Z,33.70
2018-07-12T03:05:04.113Z,31.30
2018-07-12T03:07:31.486Z,33.90
2018-07-12T03:09:58.824Z,32.43
2018-07-12T03:12:26.182Z,33.50
2018-07-12T03:14:53.504Z,34.27
2018-07-12T03:17:20.914Z,31.73
2018-07-12T03:19:48.974Z,34.07
2018-07-12T03:22:16.298Z,32.57
2018-07-12T03:24:44.453Z,32.30
2018-07-12T03:27:11.754Z,33.30
2018-07-12T03:29:39.065Z,33.33
2018-07-12T03:32:06.378Z,28.87
2018-07-12T03:34:33.733Z,31.83
2018-07-12T03:37:01.088Z,31.80
2018-07-12T03:39:28.351Z,28.90
2018-07-12T03:41:55.703Z,32.80
2018-07-12T03:44:23.847Z,32.30
2018-07-12T03:46:51.263Z,29.67
2018-07-12T03:49:18.626Z,31.67
2018-07-12T03:51:45.971Z,33.97
2018-07-12T03:54:13.396Z,33.20
2018-07-12T03:56:40.814Z,34.00
2018-07-12T03:59:08.244Z,32.17
2018-07-12T04:01:35.582Z,32.40
2018-07-12T04:04:02.874Z,31.80
2018-07-12T04:06:30.222Z,33.37
2018-07-12T04:08:57.518Z,32.87
2018-07-12T04:11:24.830Z,31.67
2018-07-12T04:13:52.250Z,35.20
2018-07-12T04:16:19.595Z,35.87
2018-07-12T04:18:46.949Z,34.07
2018-07-12T04:21:14.314Z,37.40
2018-07-12T04:23:41.649Z,36.70
2018-07-12T04:26:08.980Z,33.90
2018-07-12T04:28:36.318Z,34.70
2018-07-12T04:31:03.701Z,36.40
2018-07-12T04:33:31.023Z,31.03
2018-07-12T04:35:58.489Z,35.43
2018-07-12T04:38:25.859Z,32.10
2018-07-12T04:40:53.268Z,32.80
2018-07-12T04:43:20.671Z,32.47
2018-07-12T04:45:48.030Z,33.10
2018-07-12T04:48:15.363Z,31.27
2018-07-12T04:50:42.820Z,32.33
2018-07-12T04:53:10.177Z,32.30
2018-07-12T04:55:37.541Z,32.83
2018-07-12T04:58:04.905Z,33.17
2018-07-12T05:00:32.210Z,32.63
2018-07-12T05:02:59.590Z,33.13
2018-07-12T05:05:27.003Z,32.67
2018-07-12T05:07:54.341Z,28.57
2018-07-12T05:10:21.640Z,33.67
2018-07-12T05:12:49.032Z,34.00
2018-07-12T05:15:16.387Z,31.67
2018-07-12T05:17:43.769Z,32.20
2018-07-12T05:20:11.105Z,33.13
2018-07-12T05:22:38.450Z,32.77
2018-07-12T05:25:05.815Z,31.73
2018-07-12T05:27:33.158Z,32.90
2018-07-12T05:30:00.496Z,30.10
2018-07-12T05:32:27.914Z,25.93
2018-07-12T05:34:55.299Z,26.60
2018-07-12T05:37:24.030Z,26.47
2018-07-12T05:39:52.734Z,28.33
2018-07-12T05:42:21.525Z,26.50
2018-07-12T05:44:50.128Z,28.93
2018-07-12T05:47:18.790Z,22.60
2018-07-12T05:49:47.523Z,24.20
2018-07-12T05:52:16.262Z,23.70
2018-07-12T05:54:45.034Z,24.40
2018-07-12T05:57:13.778Z,23.83
2018-07-12T05:59:42.504Z,22.30
2018-07-12T06:02:17.243Z,22.07
2018-07-12T06:04:45.890Z,27.00
2018-07-12T06:07:15.486Z,24.57
2018-07-12T06:09:44.105Z,25.93
2018-07-12T06:12:12.843Z,24.63
2018-07-12T06:14:41.775Z,24.90
2018-07-12T06:17:10.554Z,24.20
2018-07-12T06:19:39.288Z,24.00
2018-07-12T06:22:08.082Z,23.70
2018-07-12T06:24:36.760Z,18.50
2018-07-12T06:27:05.440Z,20.33
2018-07-12T06:29:34.030Z,18.60
2018-07-12T06:32:02.710Z,22.40
2018-07-12T06:34:31.314Z,17.90
2018-07-12T06:37:00.072Z,19.87
2018-07-12T06:39:28.724Z,18.83
2018-07-12T06:41:58.445Z,15.77
2018-07-12T06:44:27.079Z,17.10
2018-07-12T06:46:55.829Z,16.80
2018-07-12T06:49:24.510Z,14.97
2018-07-12T06:52:06.687Z,16.77
2018-07-12T06:54:35.302Z,15.20
2018-07-12T06:57:03.983Z,13.10
2018-07-12T06:59:32.699Z,14.07
2018-07-12T07:02:01.323Z,14.70
2018-07-12T07:04:29.987Z,14.70
2018-07-12T07:06:58.816Z,14.10
2018-07-12T07:09:28.230Z,15.20
2018-07-12T07:12:01.361Z,14.97
2018-07-12T07:14:30.039Z,13.10
2018-07-12T07:16:58.853Z,14.63
2018-07-12T07:19:27.631Z,15.00
2018-07-12T07:21:56.274Z,11.70
2018-07-12T07:24:24.847Z,12.60
2018-07-12T07:26:53.483Z,12.60
2018-07-12T07:29:22.237Z,10.70
2018-07-12T07:31:51.754Z,11.57
2018-07-12T07:34:20.400Z,9.40
2018-07-12T07:36:49.049Z,11.67
2018-07-12T07:39:24.469Z,10.40
2018-07-12T07:41:53.164Z,9.40
2018-07-12T07:44:21.854Z,9.50
2018-07-12T07:46:50.441Z,10.40
2018-07-12T07:49:19.069Z,10.57
2018-07-12T07:52:14.494Z,8.80
2018-07-12T07:54:43.078Z,10.40
2018-07-12T07:57:11.960Z,10.67
2018-07-12T07:59:40.554Z,10.50
2018-07-12T08:02:18.186Z,9.23
2018-07-12T08:04:46.897Z,8.10
2018-07-12T08:07:15.524Z,9.20
2018-07-12T08:09:44.099Z,7.60
2018-07-12T08:12:16.035Z,9.00
2018-07-12T08:14:44.723Z,8.47
2018-07-12T08:17:13.410Z,8.00
2018-07-12T08:19:42.044Z,9.97
2018-07-12T08:22:27.965Z,8.10
2018-07-12T08:24:56.558Z,9.67
2018-07-12T08:27:25.779Z,10.33
2018-07-12T08:29:54.397Z,9.10
2018-07-12T08:32:36.228Z,8.83
2018-07-12T08:35:04.831Z,10.43
2018-07-12T08:37:33.451Z,8.03
2018-07-12T08:40:02.006Z,8.50
2018-07-12T08:42:35.213Z,6.83
2018-07-12T08:45:03.861Z,8.20
2018-07-12T08:47:32.554Z,7.83
2018-07-12T08:50:01.148Z,14.00
2018-07-12T08:52:40.826Z,8.03
2018-07-12T08:55:09.368Z,9.80
2018-07-12T08:57:37.909Z,7.40
2018-07-12T09:00:06.500Z,10.00
2018-07-12T09:02:42.915Z,7.13
2018-07-12T09:05:11.479Z,8.40
2018-07-12T09:07:40.151Z,8.73
2018-07-12T09:10:08.832Z,11.23
2018-07-12T09:12:45.543Z,8.90
2018-07-12T09:15:14.552Z,10.43
2018-07-12T09:17:43.415Z,7.67
2018-07-12T09:20:12.102Z,8.53
2018-07-12T09:22:49.066Z,8.93
2018-07-12T09:25:17.754Z,14.20
2018-07-12T09:27:46.944Z,8.03
2018-07-12T09:30:16.074Z,12.93
2018-07-12T09:32:44.747Z,9.87
2018-07-12T09:35:13.465Z,16.10
2018-07-12T09:37:42.194Z,11.30
2018-07-12T09:40:10.913Z,9.63
2018-07-12T09:42:39.606Z,12.87
2018-07-12T09:45:08.532Z,13.90
2018-07-12T09:47:37.295Z,13.40
2018-07-12T09:50:05.992Z,13.27
2018-07-12T09:52:45.034Z,13.20
2018-07-12T09:55:13.678Z,12.90
2018-07-12T09:57:53.510Z,11.80
2018-07-12T10:00:26.339Z,13.47
2018-07-12T10:03:05.782Z,10.53
2018-07-12T10:05:39.709Z,12.27
2018-07-12T10:08:22.488Z,11.87
2018-07-12T10:10:56.373Z,13.07
2018-07-12T10:13:51.327Z,12.40
2018-07-12T10:16:25.650Z,10.30
2018-07-12T10:18:54.356Z,12.20
2018-07-12T10:21:22.992Z,11.60
2018-07-12T10:23:53.742Z,10.70
2018-07-12T10:26:22.361Z,11.40
2018-07-12T10:28:51.145Z,12.60
2018-07-12T10:31:19.999Z,12.63
2018-07-12T10:33:48.878Z,12.40
2018-07-12T10:36:17.647Z,11.50
2018-07-12T10:38:46.326Z,15.40
2018-07-12T10:41:14.967Z,15.63
2018-07-12T10:44:00.400Z,14.80
2018-07-12T10:46:28.998Z,12.23
2018-07-12T10:48:57.660Z,14.07
2018-07-12T10:51:26.459Z,12.97
2018-07-12T10:53:57.179Z,13.53
2018-07-12T10:56:25.835Z,13.23
2018-07-12T10:58:54.557Z,11.73
2018-07-12T11:01:23.399Z,14.33
2018-07-12T11:03:55.703Z,19.83
2018-07-12T11:06:24.330Z,26.13
2018-07-12T11:08:53.059Z,13.73
2018-07-12T11:11:21.847Z,14.67
2018-07-12T11:13:54.830Z,13.20
2018-07-12T11:16:23.536Z,11.50
2018-07-12T11:18:52.247Z,12.37
2018-07-12T11:21:21.108Z,12.03
2018-07-12T11:23:49.796Z,10.63
2018-07-12T11:26:18.500Z,11.83
2018-07-12T11:28:47.127Z,12.87
2018-07-12T11:31:15.749Z,11.87
2018-07-12T11:33:46.442Z,12.00
2018-07-12T11:36:15.082Z,10.73
2018-07-12T11:38:44.656Z,11.77
2018-07-12T11:41:13.570Z,12.43
2018-07-12T11:43:45.881Z,10.30
2018-07-12T11:46:15.719Z,12.27
2018-07-12T11:48:45.092Z,9.40
2018-07-12T11:51:13.854Z,10.00
2018-07-12T11:53:45.792Z,10.73
2018-07-12T11:56:14.474Z,10.20
2018-07-12T11:58:43.140Z,10.20
2018-07-12T12:01:11.791Z,9.83
2018-07-12T12:03:41.468Z,8.93
2018-07-12T12:06:10.094Z,11.13
2018-07-12T12:08:38.689Z,10.40
2018-07-12T12:11:07.325Z,10.10
2018-07-12T12:13:37.038Z,12.10
2018-07-12T12:16:05.882Z,11.90
2018-07-12T12:18:34.640Z,10.00
2018-07-12T12:21:03.307Z,9.70
2018-07-12T12:23:32.059Z,8.33
2018-07-12T12:26:00.698Z,8.27
2018-07-12T12:28:29.318Z,7.83
2018-07-12T12:30:57.974Z,8.53
2018-07-12T12:33:26.534Z,7.70
2018-07-12T12:35:57.549Z,8.13
2018-07-12T12:38:26.438Z,7.83
2018-07-12T12:40:55.075Z,7.70
2018-07-12T12:43:23.653Z,6.70
2018-07-12T12:45:54.414Z,5.50
2018-07-12T12:48:23.140Z,6.80
2018-07-12T12:50:51.755Z,6.53
2018-07-12T12:53:21.316Z,6.90
2018-07-12T12:55:49.977Z,7.20
2018-07-12T12:58:19.026Z,7.00
2018-07-12T13:00:47.773Z,6.63
2018-07-12T13:03:16.414Z,5.60
2018-07-12T13:05:46.052Z,5.40
2018-07-12T13:08:14.703Z,5.30
2018-07-12T13:10:43.392Z,5.80
2018-07-12T13:13:12.032Z,5.17
2018-07-12T13:15:40.706Z,6.33
2018-07-12T13:18:09.399Z,6.80
2018-07-12T13:20:37.979Z,7.03
2018-07-12T13:23:06.614Z,5.87
2018-07-12T13:25:37.497Z,5.33
2018-07-12T13:28:06.201Z,5.10
2018-07-12T13:30:34.825Z,5.03
2018-07-12T13:33:03.416Z,5.40
2018-07-12T13:35:39.152Z,4.90
2018-07-12T13:38:07.882Z,5.17
2018-07-12T13:40:36.429Z,5.50
2018-07-12T13:43:05.045Z,4.70
2018-07-12T13:45:34.813Z,5.30
2018-07-12T13:48:03.441Z,4.37
2018-07-12T13:50:32.137Z,4.87
2018-07-12T13:53:00.796Z,4.93
2018-07-12T13:55:41.896Z,4.67
2018-07-12T13:58:10.696Z,4.83
2018-07-12T14:00:39.338Z,5.17
2018-07-12T14:03:08.001Z,5.17
2018-07-12T14:05:53.425Z,5.00
2018-07-12T14:08:22.116Z,4.47
2018-07-12T14:10:50.940Z,4.50
2018-07-12T14:13:19.587Z,4.70
2018-07-12T14:15:49.438Z,5.00
2018-07-12T14:18:18.060Z,4.60
2018-07-12T14:20:46.738Z,4.47
2018-07-12T14:23:15.508Z,5.67
2018-07-12T14:25:53.935Z,5.93
2018-07-12T14:28:22.690Z,5.53
2018-07-12T14:30:51.565Z,7.10
2018-07-12T14:33:20.470Z,4.87
2018-07-12T14:35:51.425Z,3.70
2018-07-12T14:38:20.296Z,4.23
2018-07-12T14:40:49.014Z,4.07
2018-07-12T14:43:17.640Z,3.43
2018-07-12T14:45:47.363Z,4.20
2018-07-12T14:48:16.009Z,4.60
2018-07-12T14:50:44.628Z,3.90
2018-07-12T14:53:13.167Z,4.40
2018-07-12T14:55:58.347Z,4.40
2018-07-12T14:58:26.955Z,4.07
2018-07-12T15:00:55.670Z,3.83
2018-07-12T15:03:24.490Z,4.33
2018-07-12T15:05:54.178Z,4.50
2018-07-12T15:08:22.817Z,3.90
2018-07-12T15:10:51.455Z,4.57
2018-07-12T15:13:20.148Z,4.27
2018-07-12T15:15:52.443Z,4.37
2018-07-12T15:18:21.330Z,4.93
2018-07-12T15:20:49.976Z,4.30
2018-07-12T15:23:18.809Z,4.80
2018-07-12T15:25:49.872Z,5.17
2018-07-12T15:28:18.518Z,4.80
2018-07-12T15:30:47.252Z,5.17
2018-07-12T15:33:16.058Z,3.93
2018-07-12T15:35:44.782Z,4.27
2018-07-12T15:38:13.393Z,4.23
2018-07-12T15:40:42.064Z,4.20
2018-07-12T15:43:10.694Z,3.67
2018-07-12T15:45:39.601Z,4.30
2018-07-12T15:48:08.232Z,4.80
2018-07-12T15:50:36.925Z,4.50
2018-07-12T15:53:05.625Z,4.30
2018-07-12T15:55:34.376Z,6.70
2018-07-12T15:58:03.104Z,4.70
2018-07-12T16:00:31.909Z,5.17
2018-07-12T16:03:00.881Z,4.63
2018-07-12T16:05:29.522Z,4.93
2018-07-12T16:07:59.303Z,5.37
2018-07-12T16:10:28.122Z,7.43
2018-07-12T16:12:56.933Z,6.23
2018-07-12T16:15:25.566Z,8.90
2018-07-12T16:18:02.891Z,5.80
2018-07-12T16:20:31.567Z,5.10
2018-07-12T16:23:00.195Z,5.63
2018-07-12T16:25:28.897Z,5.00
2018-07-12T16:28:01.314Z,5.97
2018-07-12T16:30:30.039Z,7.33
2018-07-12T16:32:58.727Z,5.50
2018-07-12T16:35:27.461Z,4.90
2018-07-12T16:37:57.214Z,5.53
2018-07-12T16:40:25.782Z,4.80
2018-07-12T16:42:54.445Z,4.90
2018-07-12T16:45:23.146Z,5.27
2018-07-12T16:47:51.798Z,5.60
2018-07-12T16:50:20.446Z,5.33
2018-07-12T16:52:49.103Z,6.43
2018-07-12T16:55:17.853Z,4.90
2018-07-12T16:57:46.612Z,5.47
2018-07-12T17:00:19.143Z,6.10
2018-07-12T17:02:49.111Z,5.60
2018-07-12T17:05:17.992Z,5.97
2018-07-12T17:07:46.659Z,5.23
2018-07-12T17:10:15.421Z,5.60
2018-07-12T17:12:44.251Z,5.50
2018-07-12T17:15:12.976Z,6.73
2018-07-12T17:17:41.792Z,5.90
2018-07-12T17:20:10.399Z,5.80
2018-07-12T17:22:39.130Z,7.67
2018-07-12T17:25:08.002Z,5.47
2018-07-12T17:27:36.759Z,5.83
2018-07-12T17:30:05.547Z,5.20
2018-07-12T17:32:34.309Z,5.80
2018-07-12T17:35:02.955Z,5.33
2018-07-12T17:37:31.671Z,5.80
2018-07-12T17:40:00.368Z,6.00
2018-07-12T17:42:29.110Z,6.03
2018-07-12T17:44:57.954Z,5.97
2018-07-12T17:47:26.733Z,4.13
2018-07-12T17:49:55.463Z,4.80
2018-07-12T17:52:24.206Z,4.67
2018-07-12T17:54:52.931Z,4.87
2018-07-12T17:57:21.675Z,5.00
2018-07-12T17:59:50.254Z,4.60
2018-07-12T18:02:19.002Z,5.30
2018-07-12T18:04:47.709Z,5.03
2018-07-12T18:07:16.399Z,4.33
2018-07-12T18:09:45.134Z,5.70
2018-07-12T18:12:14.129Z,5.27
2018-07-12T18:14:43.145Z,5.40
2018-07-12T18:17:11.948Z,4.67
2018-07-12T18:19:40.630Z,4.87
2018-07-12T18:22:09.342Z,4.83
2018-07-12T18:24:38.082Z,5.93
2018-07-12T18:27:06.833Z,4.47
2018-07-12T18:29:35.452Z,5.73
2018-07-12T18:32:04.156Z,5.50
2018-07-12T18:34:32.907Z,4.03
2018-07-12T18:37:01.617Z,4.43
2018-07-12T18:39:30.254Z,4.53
2018-07-12T18:41:58.959Z,4.13
2018-07-12T18:44:28.866Z,3.90
2018-07-12T18:46:57.501Z,4.70
2018-07-12T18:49:26.284Z,4.20
2018-07-12T18:51:55.068Z,4.60
2018-07-12T18:54:23.789Z,4.93
2018-07-12T18:56:52.380Z,4.07
2018-07-12T18:59:24.153Z,4.10
2018-07-12T19:01:52.752Z,4.47
2018-07-12T19:04:21.380Z,4.97
2018-07-12T19:06:49.975Z,5.10
2018-07-12T19:09:18.663Z,4.90
2018-07-12T19:11:47.315Z,4.20
2018-07-12T19:14:16.056Z,5.07
2018-07-12T19:16:44.766Z,4.20
2018-07-12T19:19:13.456Z,5.67
2018-07-12T19:21:42.280Z,5.27
2018-07-12T19:24:11.023Z,5.67
2018-07-12T19:26:39.712Z,5.63
2018-07-12T19:29:08.688Z,4.67
2018-07-12T19:31:37.414Z,5.00
2018-07-12T19:34:06.130Z,5.33
2018-07-12T19:36:34.751Z,5.10
2018-07-12T19:39:04.336Z,6.70
2018-07-12T19:41:32.977Z,6.00
2018-07-12T19:44:01.762Z,6.03
2018-07-12T19:46:30.475Z,5.07
2018-07-12T19:49:00.256Z,6.10
2018-07-12T19:51:29.192Z,6.23
2018-07-12T19:53:58.015Z,4.77
2018-07-12T19:56:26.687Z,6.00
2018-07-12T19:58:55.410Z,5.00
2018-07-12T20:01:24.036Z,6.60
2018-07-12T20:03:52.726Z,6.50
2018-07-12T20:06:21.368Z,5.50
2018-07-12T20:08:50.101Z,6.63
2018-07-12T20:11:18.792Z,6.83
2018-07-12T20:13:47.483Z,6.47
2018-07-12T20:16:16.220Z,5.60
2018-07-12T20:18:44.906Z,5.37
2018-07-12T20:21:13.688Z,6.17
2018-07-12T20:23:42.509Z,4.47
2018-07-12T20:26:11.251Z,6.00
2018-07-12T20:28:41.021Z,5.20
2018-07-12T20:31:10.567Z,6.30
2018-07-12T20:33:39.629Z,6.67
2018-07-12T20:36:08.363Z,5.97
2018-07-12T20:38:37.168Z,6.00
2018-07-12T20:41:05.916Z,6.77
2018-07-12T20:43:34.554Z,5.40
2018-07-12T20:46:03.399Z,4.63
2018-07-12T20:48:32.197Z,5.43
2018-07-12T20:51:00.916Z,5.50
2018-07-12T20:53:29.732Z,4.10
2018-07-12T20:55:58.596Z,6.03
2018-07-12T20:58:27.362Z,6.30
2018-07-12T21:00:56.181Z,6.40
2018-07-12T21:03:24.858Z,6.00
2018-07-12T21:05:53.506Z,6.40
2018-07-12T21:08:22.191Z,6.10
2018-07-12T21:10:51.499Z,7.03
2018-07-12T21:13:20.188Z,6.43
2018-07-12T21:15:48.876Z,7.40
2018-07-12T21:18:17.540Z,6.27
2018-07-12T21:20:46.204Z,6.40
2018-07-12T21:23:14.949Z,5.80
2018-07-12T21:25:43.533Z,6.57
2018-07-12T21:28:12.158Z,6.33
2018-07-12T21:30:40.878Z,5.20
2018-07-12T21:33:09.819Z,6.30
2018-07-12T21:35:38.436Z,6.50
2018-07-12T21:38:07.166Z,5.30
2018-07-12T21:40:35.867Z,5.97
2018-07-12T21:43:04.553Z,6.40
2018-07-12T21:45:33.151Z,6.80
2018-07-12T21:48:01.919Z,6.50
2018-07-12T21:50:30.625Z,5.23
2018-07-12T21:52:59.323Z,5.87
2018-07-12T21:55:28.426Z,6.00
2018-07-12T21:57:57.033Z,6.83
2018-07-12T22:00:25.827Z,6.30
2018-07-12T22:02:54.665Z,6.87
2018-07-12T22:05:23.497Z,6.70
2018-07-12T22:08:03.167Z,6.03
2018-07-12T22:10:31.947Z,6.70
2018-07-12T22:13:00.630Z,7.67
2018-07-12T22:15:29.315Z,5.37
2018-07-12T22:17:57.853Z,5.90
2018-07-12T22:20:26.527Z,6.37
2018-07-12T22:22:55.309Z,5.57
2018-07-12T22:25:24.046Z,5.13
2018-07-12T22:27:53.059Z,6.90
2018-07-12T22:30:21.798Z,7.43
2018-07-12T22:32:50.287Z,7.50
2018-07-12T22:35:19.026Z,5.73
2018-07-12T22:37:48.114Z,7.40
2018-07-12T22:40:16.787Z,7.53
2018-07-12T22:42:45.482Z,7.10
2018-07-12T22:45:14.191Z,7.00
2018-07-12T22:47:49.843Z,7.40
2018-07-12T22:50:18.685Z,8.60
2018-07-12T22:52:47.652Z,8.03
2018-07-12T22:55:16.930Z,7.03
2018-07-12T22:57:45.510Z,6.40
2018-07-12T23:00:14.207Z,7.40
2018-07-12T23:02:43.563Z,7.80
2018-07-12T23:05:12.059Z,7.40
2018-07-12T23:07:41.036Z,8.40
2018-07-12T23:10:09.614Z,7.90
2018-07-12T23:12:38.167Z,7.87
2018-07-12T23:15:06.844Z,7.93
2018-07-12T23:17:35.446Z,7.80
2018-07-12T23:20:05.018Z,8.57
2018-07-12T23:22:33.640Z,7.10
2018-07-12T23:25:02.369Z,7.80
2018-07-12T23:27:30.985Z,8.70
2018-07-12T23:30:00.089Z,8.80
2018-07-12T23:32:28.815Z,8.47
2018-07-12T23:34:57.430Z,8.80
2018-07-12T23:37:26.405Z,7.40
2018-07-12T23:39:54.931Z,8.43
2018-07-12T23:42:23.790Z,9.53
2018-07-12T23:44:52.422Z,10.30
2018-07-12T23:47:21.141Z,9.53
2018-07-12T23:49:49.905Z,9.37
2018-07-12T23:52:18.729Z,9.10
2018-07-12T23:54:47.401Z,10.57
2018-07-12T23:57:16.110Z,7.90
2018-07-12T23:59:44.799Z,10.07
